sensor_id;sensor_type;location;lat;lon;timestamp;P1;durP1;ratioP1;P2;durP2;ratioP2
9276;SDS011;4676;42.678;23.244;2023-04-24T00:00:46;12.03;;;9.20;;
9276;SDS011;4676;42.678;23.244;2023-04-24T00:03:13;13.37;;;8.27;;
9276;SDS011;4676;42.678;23.244;2023-04-24T00:05:41;8.97;;;7.80;;
9276;SDS011;4676;42.678;23.244;2023-04-24T00:08:08;9.77;;;7.73;;
9276;SDS011;4676;42.678;23.244;2023-04-24T00:10:35;7.40;;;6.63;;
9276;SDS011;4676;42.678;23.244;2023-04-24T00:13:01;7.27;;;6.60;;
9276;SDS011;4676;42.678;23.244;2023-04-24T00:15:28;9.70;;;6.93;;
9276;SDS011;4676;42.678;23.244;2023-04-24T00:17:56;8.07;;;7.27;;
9276;SDS011;4676;42.678;23.244;2023-04-24T00:20:22;12.20;;;7.70;;
9276;SDS011;4676;42.678;23.244;2023-04-24T00:22:51;11.33;;;7.73;;
9276;SDS011;4676;42.678;23.244;2023-04-24T00:25:17;12.70;;;7.33;;
9276;SDS011;4676;42.678;23.244;2023-04-24T00:27:44;7.43;;;6.63;;
9276;SDS011;4676;42.678;23.244;2023-04-24T00:30:11;7.77;;;7.07;;
9276;SDS011;4676;42.678;23.244;2023-04-24T00:32:38;7.70;;;7.07;;
9276;SDS011;4676;42.678;23.244;2023-04-24T00:35:05;8.83;;;7.87;;
9276;SDS011;4676;42.678;23.244;2023-04-24T00:37:32;7.97;;;7.20;;
9276;SDS011;4676;42.678;23.244;2023-04-24T00:40:00;8.80;;;7.47;;
9276;SDS011;4676;42.678;23.244;2023-04-24T00:42:28;8.40;;;7.60;;
9276;SDS011;4676;42.678;23.244;2023-04-24T00:44:55;10.53;;;7.80;;
9276;SDS011;4676;42.678;23.244;2023-04-24T00:47:22;8.90;;;7.40;;
9276;SDS011;4676;42.678;23.244;2023-04-24T00:49:49;11.27;;;7.50;;
9276;SDS011;4676;42.678;23.244;2023-04-24T00:52:16;254.20;;;88.90;;
9276;SDS011;4676;42.678;23.244;2023-04-24T00:54:43;402.20;;;154.20;;
9276;SDS011;4676;42.678;23.244;2023-04-24T00:57:11;9.20;;;6.57;;
9276;SDS011;4676;42.678;23.244;2023-04-24T00:59:39;8.37;;;7.53;;
9276;SDS011;4676;42.678;23.244;2023-04-24T01:02:06;8.30;;;6.87;;
9276;SDS011;4676;42.678;23.244;2023-04-24T01:04:33;9.23;;;6.73;;
9276;SDS011;4676;42.678;23.244;2023-04-24T01:07:01;8.83;;;8.03;;
9276;SDS011;4676;42.678;23.244;2023-04-24T01:09:28;12.70;;;8.30;;
9276;SDS011;4676;42.678;23.244;2023-04-24T01:11:55;11.50;;;8.73;;
9276;SDS011;4676;42.678;23.244;2023-04-24T01:14:24;9.73;;;7.73;;
9276;SDS011;4676;42.678;23.244;2023-04-24T01:16:51;10.60;;;8.27;;
9276;SDS011;4676;42.678;23.244;2023-04-24T01:19:17;11.73;;;9.20;;
9276;SDS011;4676;42.678;23.244;2023-04-24T01:21:45;13.30;;;8.90;;
9276;SDS011;4676;42.678;23.244;2023-04-24T01:24:18;11.17;;;7.50;;
9276;SDS011;4676;42.678;23.244;2023-04-24T01:26:45;8.47;;;7.60;;
9276;SDS011;4676;42.678;23.244;2023-04-24T01:29:12;8.00;;;7.20;;
9276;SDS011;4676;42.678;23.244;2023-04-24T01:31:39;11.83;;;7.53;;
9276;SDS011;4676;42.678;23.244;2023-04-24T01:34:06;13.43;;;6.83;;
9276;SDS011;4676;42.678;23.244;2023-04-24T01:36:33;7.87;;;6.60;;
9276;SDS011;4676;42.678;23.244;2023-04-24T01:39:01;7.77;;;6.50;;
9276;SDS011;4676;42.678;23.244;2023-04-24T01:41:30;8.93;;;7.77;;
9276;SDS011;4676;42.678;23.244;2023-04-24T01:43:56;12.13;;;7.63;;
9276;SDS011;4676;42.678;23.244;2023-04-24T01:46:24;12.77;;;6.67;;
9276;SDS011;4676;42.678;23.244;2023-04-24T01:48:51;6.40;;;5.90;;
9276;SDS011;4676;42.678;23.244;2023-04-24T01:51:18;9.43;;;6.67;;
9276;SDS011;4676;42.678;23.244;2023-04-24T01:53:45;6.90;;;6.37;;
9276;SDS011;4676;42.678;23.244;2023-04-24T01:56:11;8.13;;;5.57;;
9276;SDS011;4676;42.678;23.244;2023-04-24T01:58:40;8.97;;;6.17;;
9276;SDS011;4676;42.678;23.244;2023-04-24T02:01:07;6.70;;;6.00;;
9276;SDS011;4676;42.678;23.244;2023-04-24T02:03:33;6.67;;;6.00;;
9276;SDS011;4676;42.678;23.244;2023-04-24T02:06:00;6.10;;;5.70;;
9276;SDS011;4676;42.678;23.244;2023-04-24T02:08:27;6.83;;;6.43;;
9276;SDS011;4676;42.678;23.244;2023-04-24T02:10:53;6.93;;;6.23;;
9276;SDS011;4676;42.678;23.244;2023-04-24T02:13:20;6.97;;;5.87;;
9276;SDS011;4676;42.678;23.244;2023-04-24T02:15:48;6.83;;;6.23;;
9276;SDS011;4676;42.678;23.244;2023-04-24T02:18:15;7.83;;;7.00;;
9276;SDS011;4676;42.678;23.244;2023-04-24T02:20:41;13.70;;;6.80;;
9276;SDS011;4676;42.678;23.244;2023-04-24T02:23:08;7.77;;;6.67;;
9276;SDS011;4676;42.678;23.244;2023-04-24T02:25:35;7.10;;;6.40;;
9276;SDS011;4676;42.678;23.244;2023-04-24T02:28:01;6.97;;;6.37;;
9276;SDS011;4676;42.678;23.244;2023-04-24T02:30:28;6.50;;;6.00;;
9276;SDS011;4676;42.678;23.244;2023-04-24T02:32:57;9.53;;;6.93;;
9276;SDS011;4676;42.678;23.244;2023-04-24T02:35:23;8.03;;;7.17;;
9276;SDS011;4676;42.678;23.244;2023-04-24T02:37:50;9.03;;;8.23;;
9276;SDS011;4676;42.678;23.244;2023-04-24T02:40:17;8.80;;;7.93;;
9276;SDS011;4676;42.678;23.244;2023-04-24T02:42:43;8.70;;;7.90;;
9276;SDS011;4676;42.678;23.244;2023-04-24T02:45:10;11.63;;;7.80;;
9276;SDS011;4676;42.678;23.244;2023-04-24T02:47:37;7.80;;;7.13;;
9276;SDS011;4676;42.678;23.244;2023-04-24T02:50:07;7.90;;;7.17;;
9276;SDS011;4676;42.678;23.244;2023-04-24T02:52:34;7.37;;;6.80;;
9276;SDS011;4676;42.678;23.244;2023-04-24T02:55:00;14.43;;;7.17;;
9276;SDS011;4676;42.678;23.244;2023-04-24T02:57:27;7.83;;;7.13;;
9276;SDS011;4676;42.678;23.244;2023-04-24T02:59:54;6.40;;;5.80;;
9276;SDS011;4676;42.678;23.244;2023-04-24T03:02:20;14.70;;;6.97;;
9276;SDS011;4676;42.678;23.244;2023-04-24T03:04:47;7.20;;;6.70;;
9276;SDS011;4676;42.678;23.244;2023-04-24T03:07:15;7.73;;;6.97;;
9276;SDS011;4676;42.678;23.244;2023-04-24T03:09:42;9.23;;;7.50;;
9276;SDS011;4676;42.678;23.244;2023-04-24T03:12:08;7.30;;;6.63;;
9276;SDS011;4676;42.678;23.244;2023-04-24T03:14:35;9.97;;;7.33;;
9276;SDS011;4676;42.678;23.244;2023-04-24T03:17:02;7.33;;;6.73;;
9276;SDS011;4676;42.678;23.244;2023-04-24T03:19:29;6.67;;;6.00;;
9276;SDS011;4676;42.678;23.244;2023-04-24T03:21:56;9.43;;;7.40;;
9276;SDS011;4676;42.678;23.244;2023-04-24T03:24:24;8.97;;;6.60;;
9276;SDS011;4676;42.678;23.244;2023-04-24T03:26:53;10.70;;;6.87;;
9276;SDS011;4676;42.678;23.244;2023-04-24T03:29:21;9.97;;;7.03;;
9276;SDS011;4676;42.678;23.244;2023-04-24T03:31:47;8.17;;;6.93;;
9276;SDS011;4676;42.678;23.244;2023-04-24T03:34:14;20.37;;;9.20;;
9276;SDS011;4676;42.678;23.244;2023-04-24T03:36:41;6.90;;;6.30;;
9276;SDS011;4676;42.678;23.244;2023-04-24T03:39:07;6.90;;;6.40;;
9276;SDS011;4676;42.678;23.244;2023-04-24T03:41:35;7.67;;;6.93;;
9276;SDS011;4676;42.678;23.244;2023-04-24T03:44:02;12.80;;;7.17;;
9276;SDS011;4676;42.678;23.244;2023-04-24T03:46:29;6.60;;;6.10;;
9276;SDS011;4676;42.678;23.244;2023-04-24T03:48:56;7.90;;;6.33;;
9276;SDS011;4676;42.678;23.244;2023-04-24T03:51:22;7.43;;;6.73;;
9276;SDS011;4676;42.678;23.244;2023-04-24T03:53:49;9.27;;;6.60;;
9276;SDS011;4676;42.678;23.244;2023-04-24T03:56:16;7.70;;;6.90;;
9276;SDS011;4676;42.678;23.244;2023-04-24T03:58:44;13.77;;;6.83;;
9276;SDS011;4676;42.678;23.244;2023-04-24T04:01:11;7.00;;;6.33;;
9276;SDS011;4676;42.678;23.244;2023-04-24T04:03:38;8.87;;;6.50;;
9276;SDS011;4676;42.678;23.244;2023-04-24T04:06:05;11.93;;;6.20;;
9276;SDS011;4676;42.678;23.244;2023-04-24T04:08:31;6.67;;;5.97;;
9276;SDS011;4676;42.678;23.244;2023-04-24T04:10:58;6.43;;;5.90;;
9276;SDS011;4676;42.678;23.244;2023-04-24T04:13:25;7.93;;;7.13;;
9276;SDS011;4676;42.678;23.244;2023-04-24T04:15:53;19.07;;;6.83;;
9276;SDS011;4676;42.678;23.244;2023-04-24T04:18:19;6.53;;;5.93;;
9276;SDS011;4676;42.678;23.244;2023-04-24T04:20:46;6.37;;;5.97;;
9276;SDS011;4676;42.678;23.244;2023-04-24T04:23:13;6.17;;;5.67;;
9276;SDS011;4676;42.678;23.244;2023-04-24T04:25:39;5.97;;;5.33;;
9276;SDS011;4676;42.678;23.244;2023-04-24T04:28:06;17.33;;;6.53;;
9276;SDS011;4676;42.678;23.244;2023-04-24T04:30:33;6.33;;;5.83;;
9276;SDS011;4676;42.678;23.244;2023-04-24T04:33:01;7.43;;;5.87;;
9276;SDS011;4676;42.678;23.244;2023-04-24T04:35:28;9.73;;;6.27;;
9276;SDS011;4676;42.678;23.244;2023-04-24T04:37:54;6.80;;;6.10;;
9276;SDS011;4676;42.678;23.244;2023-04-24T04:40:23;9.53;;;6.53;;
9276;SDS011;4676;42.678;23.244;2023-04-24T04:42:51;7.13;;;6.63;;
9276;SDS011;4676;42.678;23.244;2023-04-24T04:45:18;7.57;;;6.80;;
9276;SDS011;4676;42.678;23.244;2023-04-24T04:47:45;7.10;;;5.63;;
9276;SDS011;4676;42.678;23.244;2023-04-24T04:50:14;10.60;;;6.87;;
9276;SDS011;4676;42.678;23.244;2023-04-24T04:52:41;6.50;;;6.00;;
9276;SDS011;4676;42.678;23.244;2023-04-24T04:55:08;6.77;;;6.27;;
9276;SDS011;4676;42.678;23.244;2023-04-24T04:57:35;6.33;;;5.83;;
9276;SDS011;4676;42.678;23.244;2023-04-24T05:00:02;15.07;;;5.93;;
9276;SDS011;4676;42.678;23.244;2023-04-24T05:02:29;9.77;;;6.70;;
9276;SDS011;4676;42.678;23.244;2023-04-24T05:04:56;14.47;;;7.60;;
9276;SDS011;4676;42.678;23.244;2023-04-24T05:07:24;11.10;;;5.97;;
9276;SDS011;4676;42.678;23.244;2023-04-24T05:09:51;9.60;;;6.20;;
9276;SDS011;4676;42.678;23.244;2023-04-24T05:14:58;10.07;;;7.10;;
9276;SDS011;4676;42.678;23.244;2023-04-24T05:17:24;11.33;;;7.57;;
9276;SDS011;4676;42.678;23.244;2023-04-24T05:19:52;7.50;;;6.27;;
9276;SDS011;4676;42.678;23.244;2023-04-24T05:22:18;14.93;;;7.00;;
9276;SDS011;4676;42.678;23.244;2023-04-24T05:24:47;6.93;;;6.30;;
9276;SDS011;4676;42.678;23.244;2023-04-24T05:27:14;11.03;;;6.43;;
9276;SDS011;4676;42.678;23.244;2023-04-24T05:29:40;7.50;;;5.73;;
9276;SDS011;4676;42.678;23.244;2023-04-24T05:32:08;7.73;;;6.13;;
9276;SDS011;4676;42.678;23.244;2023-04-24T05:34:35;6.20;;;5.67;;
9276;SDS011;4676;42.678;23.244;2023-04-24T05:37:02;8.43;;;6.33;;
9276;SDS011;4676;42.678;23.244;2023-04-24T05:39:34;9.03;;;5.67;;
9276;SDS011;4676;42.678;23.244;2023-04-24T05:42:02;5.83;;;5.33;;
9276;SDS011;4676;42.678;23.244;2023-04-24T05:44:30;11.23;;;6.70;;
9276;SDS011;4676;42.678;23.244;2023-04-24T05:46:57;12.37;;;5.87;;
9276;SDS011;4676;42.678;23.244;2023-04-24T05:49:23;12.83;;;5.80;;
9276;SDS011;4676;42.678;23.244;2023-04-24T05:51:50;6.00;;;5.53;;
9276;SDS011;4676;42.678;23.244;2023-04-24T05:54:17;6.17;;;5.77;;
9276;SDS011;4676;42.678;23.244;2023-04-24T05:56:44;31.67;;;29.57;;
9276;SDS011;4676;42.678;23.244;2023-04-24T05:59:12;61.30;;;47.73;;
9276;SDS011;4676;42.678;23.244;2023-04-24T06:01:39;244.10;;;139.17;;
9276;SDS011;4676;42.678;23.244;2023-04-24T06:04:06;470.43;;;196.30;;
9276;SDS011;4676;42.678;23.244;2023-04-24T06:06:32;507.20;;;210.87;;
9276;SDS011;4676;42.678;23.244;2023-04-24T06:09:00;461.37;;;191.47;;
9276;SDS011;4676;42.678;23.244;2023-04-24T06:11:28;8.03;;;6.33;;
9276;SDS011;4676;42.678;23.244;2023-04-24T06:13:54;40.17;;;36.47;;
9276;SDS011;4676;42.678;23.244;2023-04-24T06:16:22;13.37;;;7.43;;
9276;SDS011;4676;42.678;23.244;2023-04-24T06:18:49;7.60;;;6.27;;
9276;SDS011;4676;42.678;23.244;2023-04-24T06:21:16;11.33;;;6.43;;
9276;SDS011;4676;42.678;23.244;2023-04-24T06:23:43;9.07;;;6.53;;
9276;SDS011;4676;42.678;23.244;2023-04-24T06:26:11;7.30;;;6.70;;
9276;SDS011;4676;42.678;23.244;2023-04-24T06:28:38;9.23;;;7.23;;
9276;SDS011;4676;42.678;23.244;2023-04-24T06:31:04;8.47;;;6.93;;
9276;SDS011;4676;42.678;23.244;2023-04-24T06:33:32;13.37;;;7.87;;
9276;SDS011;4676;42.678;23.244;2023-04-24T06:35:59;9.93;;;8.97;;
9276;SDS011;4676;42.678;23.244;2023-04-24T06:38:26;10.13;;;7.97;;
9276;SDS011;4676;42.678;23.244;2023-04-24T06:40:54;11.80;;;9.07;;
9276;SDS011;4676;42.678;23.244;2023-04-24T06:43:21;8.40;;;6.97;;
9276;SDS011;4676;42.678;23.244;2023-04-24T06:45:48;7.50;;;6.90;;
9276;SDS011;4676;42.678;23.244;2023-04-24T06:48:15;9.57;;;7.17;;
9276;SDS011;4676;42.678;23.244;2023-04-24T06:50:43;6.93;;;6.33;;
9276;SDS011;4676;42.678;23.244;2023-04-24T06:53:10;10.50;;;6.87;;
9276;SDS011;4676;42.678;23.244;2023-04-24T06:55:37;10.00;;;7.30;;
9276;SDS011;4676;42.678;23.244;2023-04-24T06:58:04;8.07;;;7.30;;
9276;SDS011;4676;42.678;23.244;2023-04-24T07:00:31;10.60;;;7.30;;
9276;SDS011;4676;42.678;23.244;2023-04-24T07:02:58;7.53;;;6.73;;
9276;SDS011;4676;42.678;23.244;2023-04-24T07:05:24;8.00;;;7.00;;
9276;SDS011;4676;42.678;23.244;2023-04-24T07:07:52;8.93;;;8.13;;
9276;SDS011;4676;42.678;23.244;2023-04-24T07:10:19;13.93;;;8.77;;
9276;SDS011;4676;42.678;23.244;2023-04-24T07:12:46;8.77;;;7.87;;
9276;SDS011;4676;42.678;23.244;2023-04-24T07:15:13;14.53;;;7.07;;
9276;SDS011;4676;42.678;23.244;2023-04-24T07:17:40;8.27;;;6.70;;
9276;SDS011;4676;42.678;23.244;2023-04-24T07:20:08;12.87;;;6.30;;
9276;SDS011;4676;42.678;23.244;2023-04-24T07:22:36;11.70;;;5.77;;
9276;SDS011;4676;42.678;23.244;2023-04-24T07:25:05;6.53;;;6.00;;
9276;SDS011;4676;42.678;23.244;2023-04-24T07:27:32;10.93;;;5.50;;
9276;SDS011;4676;42.678;23.244;2023-04-24T07:29:59;5.60;;;5.20;;
9276;SDS011;4676;42.678;23.244;2023-04-24T07:32:26;11.10;;;5.77;;
9276;SDS011;4676;42.678;23.244;2023-04-24T07:34:53;6.30;;;5.83;;
9276;SDS011;4676;42.678;23.244;2023-04-24T07:37:20;6.80;;;6.17;;
9276;SDS011;4676;42.678;23.244;2023-04-24T07:39:46;8.13;;;5.20;;
9276;SDS011;4676;42.678;23.244;2023-04-24T07:42:15;5.67;;;5.37;;
9276;SDS011;4676;42.678;23.244;2023-04-24T07:44:41;8.17;;;5.60;;
9276;SDS011;4676;42.678;23.244;2023-04-24T07:47:08;5.60;;;5.20;;
9276;SDS011;4676;42.678;23.244;2023-04-24T07:49:35;6.57;;;6.00;;
9276;SDS011;4676;42.678;23.244;2023-04-24T07:52:01;10.73;;;5.13;;
9276;SDS011;4676;42.678;23.244;2023-04-24T07:54:28;6.23;;;5.63;;
9276;SDS011;4676;42.678;23.244;2023-04-24T07:56:55;12.13;;;6.50;;
9276;SDS011;4676;42.678;23.244;2023-04-24T07:59:23;7.70;;;6.63;;
9276;SDS011;4676;42.678;23.244;2023-04-24T08:01:50;6.27;;;5.77;;
9276;SDS011;4676;42.678;23.244;2023-04-24T08:04:17;6.63;;;5.83;;
9276;SDS011;4676;42.678;23.244;2023-04-24T08:06:43;6.47;;;6.03;;
9276;SDS011;4676;42.678;23.244;2023-04-24T08:09:10;6.27;;;5.70;;
9276;SDS011;4676;42.678;23.244;2023-04-24T08:11:37;7.20;;;6.60;;
9276;SDS011;4676;42.678;23.244;2023-04-24T08:14:03;6.63;;;6.00;;
9276;SDS011;4676;42.678;23.244;2023-04-24T08:16:33;7.57;;;5.93;;
9276;SDS011;4676;42.678;23.244;2023-04-24T08:19:01;6.97;;;6.13;;
9276;SDS011;4676;42.678;23.244;2023-04-24T08:21:28;8.30;;;7.20;;
9276;SDS011;4676;42.678;23.244;2023-04-24T08:23:55;9.03;;;6.43;;
9276;SDS011;4676;42.678;23.244;2023-04-24T08:26:21;6.87;;;6.27;;
9276;SDS011;4676;42.678;23.244;2023-04-24T08:28:48;10.43;;;6.83;;
9276;SDS011;4676;42.678;23.244;2023-04-24T08:31:15;6.43;;;5.97;;
9276;SDS011;4676;42.678;23.244;2023-04-24T08:33:43;7.97;;;7.07;;
9276;SDS011;4676;42.678;23.244;2023-04-24T08:36:13;8.77;;;6.90;;
9276;SDS011;4676;42.678;23.244;2023-04-24T08:38:40;7.47;;;6.77;;
9276;SDS011;4676;42.678;23.244;2023-04-24T08:41:06;8.47;;;6.80;;
9276;SDS011;4676;42.678;23.244;2023-04-24T08:43:34;8.50;;;5.83;;
9276;SDS011;4676;42.678;23.244;2023-04-24T08:46:03;7.50;;;6.73;;
9276;SDS011;4676;42.678;23.244;2023-04-24T08:48:30;6.93;;;6.33;;
9276;SDS011;4676;42.678;23.244;2023-04-24T08:50:59;13.70;;;7.37;;
9276;SDS011;4676;42.678;23.244;2023-04-24T08:53:26;26.20;;;24.73;;
9276;SDS011;4676;42.678;23.244;2023-04-24T08:55:54;14.40;;;13.37;;
9276;SDS011;4676;42.678;23.244;2023-04-24T08:58:22;7.80;;;6.80;;
9276;SDS011;4676;42.678;23.244;2023-04-24T09:00:51;5.73;;;5.27;;
9276;SDS011;4676;42.678;23.244;2023-04-24T09:03:20;11.40;;;6.93;;
9276;SDS011;4676;42.678;23.244;2023-04-24T09:05:47;6.13;;;5.47;;
9276;SDS011;4676;42.678;23.244;2023-04-24T09:08:18;30.43;;;28.07;;
9276;SDS011;4676;42.678;23.244;2023-04-24T09:10:45;7.97;;;6.30;;
9276;SDS011;4676;42.678;23.244;2023-04-24T09:13:12;6.93;;;5.60;;
9276;SDS011;4676;42.678;23.244;2023-04-24T09:15:40;7.43;;;6.30;;
9276;SDS011;4676;42.678;23.244;2023-04-24T09:18:07;7.07;;;6.17;;
9276;SDS011;4676;42.678;23.244;2023-04-24T09:20:34;5.90;;;5.40;;
9276;SDS011;4676;42.678;23.244;2023-04-24T09:23:01;5.37;;;5.07;;
9276;SDS011;4676;42.678;23.244;2023-04-24T09:25:31;6.27;;;5.87;;
9276;SDS011;4676;42.678;23.244;2023-04-24T09:28:01;6.50;;;5.97;;
9276;SDS011;4676;42.678;23.244;2023-04-24T09:30:28;4.90;;;4.60;;
9276;SDS011;4676;42.678;23.244;2023-04-24T09:35:40;5.43;;;5.03;;
9276;SDS011;4676;42.678;23.244;2023-04-24T09:38:07;5.00;;;4.53;;
9276;SDS011;4676;42.678;23.244;2023-04-24T09:40:36;6.27;;;5.60;;
9276;SDS011;4676;42.678;23.244;2023-04-24T09:43:02;5.43;;;5.03;;
9276;SDS011;4676;42.678;23.244;2023-04-24T09:45:34;4.70;;;4.40;;
9276;SDS011;4676;42.678;23.244;2023-04-24T09:48:02;8.47;;;5.67;;
9276;SDS011;4676;42.678;23.244;2023-04-24T09:50:30;7.47;;;5.00;;
9276;SDS011;4676;42.678;23.244;2023-04-24T09:53:01;5.73;;;5.33;;
9276;SDS011;4676;42.678;23.244;2023-04-24T09:55:28;8.53;;;5.50;;
9276;SDS011;4676;42.678;23.244;2023-04-24T09:57:57;6.00;;;5.30;;
9276;SDS011;4676;42.678;23.244;2023-04-24T10:00:25;6.33;;;5.00;;
9276;SDS011;4676;42.678;23.244;2023-04-24T10:02:57;4.00;;;3.70;;
9276;SDS011;4676;42.678;23.244;2023-04-24T10:05:29;7.57;;;4.07;;
9276;SDS011;4676;42.678;23.244;2023-04-24T10:07:58;6.50;;;4.00;;
9276;SDS011;4676;42.678;23.244;2023-04-24T10:10:27;4.30;;;4.00;;
9276;SDS011;4676;42.678;23.244;2023-04-24T10:12:54;3.97;;;3.77;;
9276;SDS011;4676;42.678;23.244;2023-04-24T10:15:22;3.37;;;3.20;;
9276;SDS011;4676;42.678;23.244;2023-04-24T10:17:52;4.07;;;3.43;;
9276;SDS011;4676;42.678;23.244;2023-04-24T10:20:19;3.53;;;3.27;;
9276;SDS011;4676;42.678;23.244;2023-04-24T10:22:48;5.17;;;3.63;;
9276;SDS011;4676;42.678;23.244;2023-04-24T10:25:16;3.87;;;3.57;;
9276;SDS011;4676;42.678;23.244;2023-04-24T10:27:45;5.83;;;3.87;;
9276;SDS011;4676;42.678;23.244;2023-04-24T10:30:13;16.60;;;15.50;;
9276;SDS011;4676;42.678;23.244;2023-04-24T10:32:42;4.47;;;3.60;;
9276;SDS011;4676;42.678;23.244;2023-04-24T10:35:08;6.10;;;5.90;;
9276;SDS011;4676;42.678;23.244;2023-04-24T10:37:39;4.40;;;4.20;;
9276;SDS011;4676;42.678;23.244;2023-04-24T10:40:10;4.37;;;4.17;;
9276;SDS011;4676;42.678;23.244;2023-04-24T10:42:39;16.37;;;15.50;;
9276;SDS011;4676;42.678;23.244;2023-04-24T10:45:10;122.80;;;114.07;;
9276;SDS011;4676;42.678;23.244;2023-04-24T10:47:44;259.33;;;237.77;;
9276;SDS011;4676;42.678;23.244;2023-04-24T10:50:17;119.30;;;110.90;;
9276;SDS011;4676;42.678;23.244;2023-04-24T10:52:44;9.63;;;6.17;;
9276;SDS011;4676;42.678;23.244;2023-04-24T10:55:12;44.60;;;41.57;;
9276;SDS011;4676;42.678;23.244;2023-04-24T10:57:39;15.83;;;15.23;;
9276;SDS011;4676;42.678;23.244;2023-04-24T11:00:19;97.57;;;91.30;;
9276;SDS011;4676;42.678;23.244;2023-04-24T11:02:48;187.00;;;172.77;;
9276;SDS011;4676;42.678;23.244;2023-04-24T11:05:17;102.37;;;95.30;;
9276;SDS011;4676;42.678;23.244;2023-04-24T11:10:38;45.27;;;42.60;;
9276;SDS011;4676;42.678;23.244;2023-04-24T11:13:05;222.60;;;205.87;;
9276;SDS011;4676;42.678;23.244;2023-04-24T11:15:33;52.80;;;49.47;;
9276;SDS011;4676;42.678;23.244;2023-04-24T11:18:01;88.70;;;80.23;;
9276;SDS011;4676;42.678;23.244;2023-04-24T11:20:27;293.90;;;268.93;;
9276;SDS011;4676;42.678;23.244;2023-04-24T11:22:54;75.43;;;69.23;;
9276;SDS011;4676;42.678;23.244;2023-04-24T11:25:22;253.60;;;231.97;;
9276;SDS011;4676;42.678;23.244;2023-04-24T11:27:50;162.30;;;148.47;;
9276;SDS011;4676;42.678;23.244;2023-04-24T11:30:29;60.03;;;55.30;;
9276;SDS011;4676;42.678;23.244;2023-04-24T11:32:56;18.83;;;17.47;;
9276;SDS011;4676;42.678;23.244;2023-04-24T11:35:30;19.27;;;17.67;;
9276;SDS011;4676;42.678;23.244;2023-04-24T11:38:02;240.90;;;219.60;;
9276;SDS011;4676;42.678;23.244;2023-04-24T11:40:30;397.10;;;346.83;;
9276;SDS011;4676;42.678;23.244;2023-04-24T11:42:59;368.43;;;318.23;;
9276;SDS011;4676;42.678;23.244;2023-04-24T11:45:27;187.50;;;167.13;;
9276;SDS011;4676;42.678;23.244;2023-04-24T11:47:56;199.43;;;181.20;;
9276;SDS011;4676;42.678;23.244;2023-04-24T11:50:25;200.33;;;183.23;;
9276;SDS011;4676;42.678;23.244;2023-04-24T11:52:54;20.10;;;16.90;;
9276;SDS011;4676;42.678;23.244;2023-04-24T11:55:28;14.20;;;9.70;;
9276;SDS011;4676;42.678;23.244;2023-04-24T11:57:55;18.03;;;16.60;;
9276;SDS011;4676;42.678;23.244;2023-04-24T12:00:24;13.57;;;12.13;;
9276;SDS011;4676;42.678;23.244;2023-04-24T12:03:02;11.67;;;9.13;;
9276;SDS011;4676;42.678;23.244;2023-04-24T12:05:32;16.33;;;7.07;;
9276;SDS011;4676;42.678;23.244;2023-04-24T12:07:59;21.20;;;7.47;;
9276;SDS011;4676;42.678;23.244;2023-04-24T12:10:26;7.13;;;6.63;;
9276;SDS011;4676;42.678;23.244;2023-04-24T12:12:55;13.73;;;11.90;;
9276;SDS011;4676;42.678;23.244;2023-04-24T12:15:22;6.70;;;5.23;;
9276;SDS011;4676;42.678;23.244;2023-04-24T12:17:50;9.90;;;6.40;;
9276;SDS011;4676;42.678;23.244;2023-04-24T12:20:23;22.30;;;21.00;;
9276;SDS011;4676;42.678;23.244;2023-04-24T12:22:52;15.83;;;14.33;;
9276;SDS011;4676;42.678;23.244;2023-04-24T12:25:20;11.20;;;10.17;;
9276;SDS011;4676;42.678;23.244;2023-04-24T12:27:52;8.97;;;5.83;;
9276;SDS011;4676;42.678;23.244;2023-04-24T12:30:21;20.97;;;19.33;;
9276;SDS011;4676;42.678;23.244;2023-04-24T12:32:52;25.67;;;23.47;;
9276;SDS011;4676;42.678;23.244;2023-04-24T12:35:20;59.97;;;55.67;;
9276;SDS011;4676;42.678;23.244;2023-04-24T12:37:47;81.63;;;76.20;;
9276;SDS011;4676;42.678;23.244;2023-04-24T12:40:16;232.37;;;215.27;;
9276;SDS011;4676;42.678;23.244;2023-04-24T12:42:44;164.37;;;152.00;;
9276;SDS011;4676;42.678;23.244;2023-04-24T12:45:12;244.37;;;225.73;;
9276;SDS011;4676;42.678;23.244;2023-04-24T12:47:40;169.07;;;156.40;;
9276;SDS011;4676;42.678;23.244;2023-04-24T12:50:08;141.13;;;131.27;;
9276;SDS011;4676;42.678;23.244;2023-04-24T12:52:35;336.33;;;308.47;;
9276;SDS011;4676;42.678;23.244;2023-04-24T12:55:03;305.47;;;279.90;;
9276;SDS011;4676;42.678;23.244;2023-04-24T12:57:34;190.90;;;174.87;;
9276;SDS011;4676;42.678;23.244;2023-04-24T13:00:04;356.70;;;325.33;;
9276;SDS011;4676;42.678;23.244;2023-04-24T13:02:32;259.10;;;236.40;;
9276;SDS011;4676;42.678;23.244;2023-04-24T13:04:59;293.43;;;268.43;;
9276;SDS011;4676;42.678;23.244;2023-04-24T13:07:27;304.80;;;279.37;;
9276;SDS011;4676;42.678;23.244;2023-04-24T13:09:54;356.13;;;325.30;;
9276;SDS011;4676;42.678;23.244;2023-04-24T13:12:21;435.13;;;395.27;;
9276;SDS011;4676;42.678;23.244;2023-04-24T13:14:51;457.53;;;416.33;;
9276;SDS011;4676;42.678;23.244;2023-04-24T13:17:19;383.80;;;351.83;;
9276;SDS011;4676;42.678;23.244;2023-04-24T13:19:45;459.70;;;418.60;;
9276;SDS011;4676;42.678;23.244;2023-04-24T13:22:12;449.33;;;408.97;;
9276;SDS011;4676;42.678;23.244;2023-04-24T13:24:39;373.17;;;339.87;;
9276;SDS011;4676;42.678;23.244;2023-04-24T13:27:06;359.47;;;328.00;;
9276;SDS011;4676;42.678;23.244;2023-04-24T13:29:34;290.80;;;265.87;;
9276;SDS011;4676;42.678;23.244;2023-04-24T13:32:02;313.20;;;286.37;;
9276;SDS011;4676;42.678;23.244;2023-04-24T13:34:29;320.83;;;293.50;;
9276;SDS011;4676;42.678;23.244;2023-04-24T13:36:56;391.90;;;357.80;;
9276;SDS011;4676;42.678;23.244;2023-04-24T13:39:24;474.80;;;432.30;;
9276;SDS011;4676;42.678;23.244;2023-04-24T13:41:51;323.50;;;296.20;;
9276;SDS011;4676;42.678;23.244;2023-04-24T13:44:18;527.63;;;482.03;;
9276;SDS011;4676;42.678;23.244;2023-04-24T13:46:46;539.87;;;490.27;;
9276;SDS011;4676;42.678;23.244;2023-04-24T13:49:15;511.23;;;462.83;;
9276;SDS011;4676;42.678;23.244;2023-04-24T13:51:42;524.77;;;472.70;;
9276;SDS011;4676;42.678;23.244;2023-04-24T13:54:10;499.00;;;452.63;;
9276;SDS011;4676;42.678;23.244;2023-04-24T13:56:38;480.77;;;437.27;;
9276;SDS011;4676;42.678;23.244;2023-04-24T13:59:05;505.90;;;458.83;;
9276;SDS011;4676;42.678;23.244;2023-04-24T14:01:31;421.40;;;384.03;;
9276;SDS011;4676;42.678;23.244;2023-04-24T14:03:58;403.57;;;368.13;;
9276;SDS011;4676;42.678;23.244;2023-04-24T14:06:26;441.57;;;402.80;;
9276;SDS011;4676;42.678;23.244;2023-04-24T14:08:53;494.17;;;450.23;;
9276;SDS011;4676;42.678;23.244;2023-04-24T14:11:20;500.40;;;457.77;;
9276;SDS011;4676;42.678;23.244;2023-04-24T14:13:47;567.83;;;517.57;;
9276;SDS011;4676;42.678;23.244;2023-04-24T14:16:14;568.77;;;515.97;;
9276;SDS011;4676;42.678;23.244;2023-04-24T14:18:40;603.03;;;540.47;;
9276;SDS011;4676;42.678;23.244;2023-04-24T14:21:07;577.07;;;521.73;;
9276;SDS011;4676;42.678;23.244;2023-04-24T14:23:35;598.27;;;541.90;;
9276;SDS011;4676;42.678;23.244;2023-04-24T14:26:02;576.87;;;522.63;;
9276;SDS011;4676;42.678;23.244;2023-04-24T14:28:29;557.07;;;499.60;;
9276;SDS011;4676;42.678;23.244;2023-04-24T14:30:56;576.80;;;516.33;;
9276;SDS011;4676;42.678;23.244;2023-04-24T14:33:22;598.67;;;538.97;;
9276;SDS011;4676;42.678;23.244;2023-04-24T14:35:49;601.07;;;541.03;;
9276;SDS011;4676;42.678;23.244;2023-04-24T14:38:16;592.33;;;533.63;;
9276;SDS011;4676;42.678;23.244;2023-04-24T14:40:44;605.07;;;498.87;;
9276;SDS011;4676;42.678;23.244;2023-04-24T14:43:11;553.67;;;498.77;;
9276;SDS011;4676;42.678;23.244;2023-04-24T14:45:37;525.27;;;474.47;;
9276;SDS011;4676;42.678;23.244;2023-04-24T14:48:05;76.57;;;44.03;;
9276;SDS011;4676;42.678;23.244;2023-04-24T14:50:33;340.87;;;242.17;;
9276;SDS011;4676;42.678;23.244;2023-04-24T14:52:59;1315.50;;;775.27;;
9276;SDS011;4676;42.678;23.244;2023-04-24T14:55:27;743.67;;;459.47;;